Time;durP1;ratioP1;P1;durP2;ratioP2;P2;SDS_P1;SDS_P2;PMS_P1;PMS_P2;Temp;Humidity;BMP_temperature;BMP_pressure;BME280_temperature;BME280_humidity;BME280_pressure;Samples;Min_cycle;Max_cycle;Signal;HPM_P1;HPM_P2
2022/11/30 06:03:37;;;;;;;22.33;12.85;;;6.80;99.90;;;;;;4913389;24;20132;-73
2022/11/30 06:06:03;;;;;;;21.13;12.95;;;6.80;99.90;;;;;;4881678;29;20229;-73
2022/11/30 06:08:28;;;;;;;23.38;13.55;;;6.80;99.90;;;;;;4887286;29;20029;-73
2022/11/30 06:10:59;;;;;;;21.40;13.30;;;6.80;99.90;;;;;;4887471;29;20299;-73
2022/11/30 06:13:25;;;;;;;22.35;12.98;;;6.80;99.90;;;;;;4871039;29;20112;-72
2022/11/30 06:15:51;;;;;;;23.83;13.07;;;6.80;99.90;;;;;;4887846;29;20315;-73
2022/11/30 06:18:16;;;;;;;22.50;12.25;;;6.80;99.90;;;;;;4887470;29;20105;-72
2022/11/30 06:20:42;;;;;;;21.67;12.68;;;6.90;99.90;;;;;;4887155;29;20298;-72
2022/11/30 06:23:08;;;;;;;24.45;13.52;;;6.90;99.90;;;;;;4888655;29;20108;-72
2022/11/30 06:25:33;;;;;;;23.67;13.40;;;6.90;99.90;;;;;;4882143;29;20378;-72
2022/11/30 06:27:59;;;;;;;25.50;13.98;;;6.90;99.90;;;;;;4869050;29;20338;-72
2022/11/30 06:30:25;;;;;;;24.33;14.20;;;6.90;99.90;;;;;;4867814;29;20037;-72
2022/11/30 06:32:51;;;;;;;21.85;13.52;;;6.90;99.90;;;;;;4868869;29;20037;-72
2022/11/30 06:35:18;;;;;;;25.48;14.95;;;6.90;99.90;;;;;;4871300;29;20033;-72
2022/11/30 06:37:44;;;;;;;24.40;14.13;;;6.80;99.90;;;;;;4886461;29;20333;-72
2022/11/30 06:40:11;;;;;;;23.95;13.73;;;6.80;99.90;;;;;;4887958;29;20104;-73
2022/11/30 06:42:38;;;;;;;24.60;14.23;;;6.80;99.90;;;;;;4890605;29;20021;-72
2022/11/30 06:45:05;;;;;;;24.13;13.77;;;6.90;99.90;;;;;;4890701;29;20453;-72
2022/11/30 06:47:31;;;;;;;23.90;13.83;;;6.80;99.90;;;;;;4875871;29;20092;-72
2022/11/30 06:49:57;;;;;;;21.83;13.82;;;6.80;99.90;;;;;;4871970;29;20083;-72
2022/11/30 06:52:23;;;;;;;21.88;13.30;;;6.90;99.90;;;;;;4871390;29;20029;-72
2022/11/30 06:54:49;;;;;;;24.73;14.80;;;6.90;99.90;;;;;;4872288;29;20034;-72
2022/11/30 06:57:14;;;;;;;23.60;13.57;;;6.90;99.90;;;;;;4871837;29;20223;-73
2022/11/30 06:59:45;;;;;;;21.58;13.30;;;6.90;99.90;;;;;;4871494;29;20112;-73
2022/11/30 07:02:12;;;;;;;22.83;14.27;;;6.90;99.90;;;;;;4871639;29;20223;-72
2022/11/30 07:04:38;;;;;;;26.30;13.65;;;6.90;99.90;;;;;;4871129;29;20199;-73
2022/11/30 07:07:06;;;;;;;25.00;14.13;;;6.90;99.90;;;;;;4875671;29;20034;-72
2022/11/30 07:09:33;;;;;;;22.88;13.73;;;6.90;99.90;;;;;;4874867;29;20089;-74
2022/11/30 07:12:00;;;;;;;24.08;13.63;;;6.90;99.90;;;;;;4890165;29;20145;-72
2022/11/30 07:14:25;;;;;;;21.77;13.63;;;7.00;99.90;;;;;;4889412;29;20092;-72
2022/11/30 07:16:51;;;;;;;21.23;13.27;;;7.00;99.90;;;;;;4890483;29;20048;-74
2022/11/30 07:19:17;;;;;;;23.70;13.70;;;7.10;99.90;;;;;;4873578;29;20037;-72
2022/11/30 07:21:43;;;;;;;21.48;12.80;;;7.10;99.90;;;;;;4882801;29;20053;-73
2022/11/30 07:26:57;;;;;;;21.60;12.85;;;7.10;99.90;;;;;;4870156;29;20045;-72
2022/11/30 07:29:23;;;;;;;22.02;13.32;;;7.10;99.90;;;;;;4884852;29;20021;-71
2022/11/30 07:31:52;;;;;;;21.20;12.25;;;7.20;99.90;;;;;;4888907;29;20112;-71
2022/11/30 07:34:19;;;;;;;21.10;12.07;;;7.20;99.90;;;;;;4888914;29;20037;-72
2022/11/30 07:36:44;;;;;;;20.25;11.85;;;7.20;99.90;;;;;;4888390;29;20096;-71
2022/11/30 07:39:11;;;;;;;21.55;12.45;;;7.20;99.90;;;;;;4888470;29;20037;-73
2022/11/30 07:41:38;;;;;;;20.60;12.18;;;7.20;99.90;;;;;;4887964;29;20345;-73
2022/11/30 07:44:06;;;;;;;18.92;11.98;;;7.20;99.90;;;;;;4888409;29;20044;-71
2022/11/30 07:46:34;;;;;;;20.63;12.07;;;7.10;99.90;;;;;;4888575;29;20029;-71
2022/11/30 07:49:01;;;;;;;21.63;12.43;;;7.20;99.90;;;;;;4863514;29;20185;-72
2022/11/30 07:51:27;;;;;;;22.30;12.68;;;7.20;99.90;;;;;;4868696;29;20331;-72
2022/11/30 07:53:55;;;;;;;21.20;12.60;;;7.20;99.90;;;;;;4865317;29;20061;-71
2022/11/30 07:56:21;;;;;;;22.30;13.60;;;7.20;99.90;;;;;;4870000;29;20041;-72
2022/11/30 07:58:49;;;;;;;20.38;12.48;;;7.30;99.90;;;;;;4869184;29;20034;-71
2022/11/30 08:01:22;;;;;;;22.95;13.00;;;7.20;99.90;;;;;;4874099;29;20278;-71
2022/11/30 08:03:49;;;;;;;19.33;12.10;;;7.30;99.90;;;;;;4874408;29;20038;-71
2022/11/30 08:06:26;;;;;;;20.90;11.77;;;7.50;99.90;;;;;;4870511;29;20064;-71
2022/11/30 08:08:55;;;;;;;21.05;12.32;;;7.50;99.90;;;;;;4888376;29;20032;-72
2022/11/30 08:11:29;;;;;;;21.25;12.18;;;7.50;99.90;;;;;;4853728;29;20105;-70
2022/11/30 08:13:56;;;;;;;24.63;15.65;;;7.50;99.90;;;;;;4883610;29;20108;-71
2022/11/30 08:16:24;;;;;;;23.27;13.45;;;7.60;99.90;;;;;;4887951;29;20460;-70
2022/11/30 08:18:51;;;;;;;21.75;12.90;;;7.70;99.90;;;;;;4892617;29;20021;-72
2022/11/30 08:21:19;;;;;;;21.45;12.60;;;7.80;99.90;;;;;;4906898;29;20092;-72
2022/11/30 08:23:47;;;;;;;20.95;12.40;;;7.70;99.90;;;;;;4905921;29;20270;-72
2022/11/30 08:26:28;;;;;;;22.80;13.75;;;7.80;99.90;;;;;;4906501;29;20048;-73
2022/11/30 08:28:54;;;;;;;24.05;14.02;;;7.80;99.90;;;;;;4906669;29;20024;-71
2022/11/30 08:31:29;;;;;;;23.77;13.32;;;7.90;99.90;;;;;;4906196;29;20016;-71
2022/11/30 08:33:57;;;;;;;24.17;13.52;;;7.90;99.90;;;;;;4906627;29;20100;-70
2022/11/30 08:36:24;;;;;;;21.45;13.00;;;7.80;99.90;;;;;;4906507;29;20307;-73
2022/11/30 08:38:50;;;;;;;24.33;14.18;;;7.90;99.90;;;;;;4906249;29;20341;-71
2022/11/30 08:41:20;;;;;;;23.45;13.77;;;7.90;99.90;;;;;;4906207;29;20025;-73
2022/11/30 08:43:47;;;;;;;29.58;16.98;;;7.90;99.90;;;;;;4906180;29;20044;-74
2022/11/30 08:46:15;;;;;;;57.30;37.30;;;8.00;99.90;;;;;;4906520;29;20320;-72
2022/11/30 08:48:40;;;;;;;26.30;14.57;;;8.00;99.90;;;;;;4906139;29;20024;-72
2022/11/30 08:51:11;;;;;;;23.35;14.73;;;8.00;99.90;;;;;;4906664;29;20031;-70
2022/11/30 08:53:37;;;;;;;23.58;13.32;;;7.90;99.90;;;;;;4905764;29;20044;-72
2022/11/30 08:56:07;;;;;;;26.15;14.30;;;7.90;99.90;;;;;;4889694;29;20047;-71
2022/11/30 08:58:35;;;;;;;26.17;14.45;;;7.90;99.90;;;;;;4906009;29;20315;-72
2022/11/30 09:01:06;;;;;;;25.95;13.77;;;7.80;99.90;;;;;;4906234;29;20036;-72
2022/11/30 09:03:32;;;;;;;26.55;15.25;;;7.80;99.90;;;;;;4904628;29;20382;-71
2022/11/30 09:06:12;;;;;;;26.60;14.73;;;7.80;99.90;;;;;;4906283;29;20036;-72
2022/11/30 09:08:40;;;;;;;26.50;14.25;;;7.70;99.90;;;;;;4906008;29;20036;-71
2022/11/30 09:11:10;;;;;;;24.73;14.13;;;7.80;99.90;;;;;;4905888;29;20315;-71
2022/11/30 09:13:36;;;;;;;26.35;13.32;;;7.90;99.90;;;;;;4905579;29;20363;-71
2022/11/30 09:16:01;;;;;;;24.60;14.02;;;8.00;99.90;;;;;;4889401;29;20047;-71
2022/11/30 09:18:27;;;;;;;27.23;14.27;;;8.00;99.90;;;;;;4905325;29;20283;-71
2022/11/30 09:20:57;;;;;;;26.80;13.43;;;8.10;99.90;;;;;;4901877;29;20020;-73
2022/11/30 09:23:22;;;;;;;26.33;14.73;;;8.10;99.90;;;;;;4886916;29;20212;-72
2022/11/30 09:25:54;;;;;;;36.75;21.92;;;8.20;99.90;;;;;;4890331;29;20046;-71
2022/11/30 09:28:20;;;;;;;29.33;16.63;;;8.30;99.90;;;;;;4905479;29;20040;-72
2022/11/30 09:30:45;;;;;;;26.60;15.40;;;8.40;99.90;;;;;;4886634;29;20059;-72
2022/11/30 09:33:11;;;;;;;23.55;13.70;;;8.60;99.90;;;;;;4886949;29;20056;-72
2022/11/30 09:35:37;;;;;;;24.30;13.85;;;8.70;99.90;;;;;;4886279;29;20196;-71
2022/11/30 09:38:03;;;;;;;23.98;13.20;;;8.80;99.90;;;;;;4870431;29;20064;-73
2022/11/30 09:40:30;;;;;;;23.80;13.02;;;8.80;99.90;;;;;;4886487;29;20024;-76
2022/11/30 09:43:22;;;;;;;24.25;13.60;;;8.80;99.90;;;;;;4901277;29;20036;-74
2022/11/30 09:45:55;;;;;;;34.72;20.55;;;8.80;99.90;;;;;;4905360;29;20040;-74
2022/11/30 09:48:32;;;;;;;30.52;19.35;;;8.80;99.90;;;;;;4906028;29;20051;-73
2022/11/30 09:51:04;;;;;;;25.55;15.05;;;8.90;99.90;;;;;;4905552;29;20041;-72
2022/11/30 09:53:50;;;;;;;23.65;13.77;;;8.80;99.90;;;;;;4906583;29;20036;-74
2022/11/30 09:56:29;;;;;;;24.88;14.48;;;8.90;99.90;;;;;;4905832;29;20074;-74
2022/11/30 09:59:12;;;;;;;20.52;12.73;;;8.90;99.90;;;;;;4905874;29;20036;-72
2022/11/30 10:01:38;;;;;;;27.67;13.40;;;8.90;99.90;;;;;;4903949;29;20037;-72
2022/11/30 10:04:04;;;;;;;24.88;14.25;;;9.10;99.90;;;;;;4888122;29;20092;-73
2022/11/30 10:06:57;;;;;;;24.17;13.30;;;9.10;99.90;;;;;;4886049;29;20037;-73
2022/11/30 10:09:29;;;;;;;22.73;13.23;;;9.10;99.90;;;;;;4886719;29;20311;-76
2022/11/30 10:12:07;;;;;;;21.27;12.73;;;9.20;99.90;;;;;;4886748;29;20107;-75
2022/11/30 10:15:01;;;;;;;22.55;12.80;;;9.30;99.90;;;;;;4888336;29;20033;-71
2022/11/30 10:17:42;;;;;;;22.67;13.25;;;9.40;99.90;;;;;;4889946;29;20040;-74
2022/11/30 10:20:25;;;;;;;21.77;12.07;;;9.40;99.90;;;;;;4890014;29;20040;-74
2022/11/30 10:23:28;;;;;;;21.92;12.25;;;9.50;99.90;;;;;;4890239;29;20053;-73
2022/11/30 10:26:05;;;;;;;23.73;12.43;;;9.40;99.90;;;;;;4850771;29;20054;-74
2022/11/30 10:28:53;;;;;;;24.48;12.27;;;9.40;99.90;;;;;;4890932;29;20053;-72
2022/11/30 10:31:32;;;;;;;24.33;13.15;;;9.30;99.90;;;;;;4908727;29;20089;-75
2022/11/30 10:34:22;;;;;;;22.92;13.57;;;9.30;99.90;;;;;;4908621;29;20059;-73
2022/11/30 10:37:13;;;;;;;22.55;12.75;;;9.20;99.90;;;;;;4906295;29;20036;-73
2022/11/30 10:39:58;;;;;;;31.75;19.60;;;9.20;99.90;;;;;;4908167;29;20029;-74
2022/11/30 10:43:04;;;;;;;23.95;14.40;;;9.10;99.90;;;;;;4908312;29;20048;-73
2022/11/30 10:45:31;;;;;;;22.27;12.85;;;9.00;99.90;;;;;;4893538;29;20349;-73
2022/11/30 10:48:06;;;;;;;22.88;12.57;;;8.90;99.90;;;;;;4889863;29;20256;-76
2022/11/30 10:50:35;;;;;;;20.98;12.18;;;8.90;99.90;;;;;;4889145;29;20371;-73
2022/11/30 10:53:04;;;;;;;20.08;12.18;;;8.80;99.90;;;;;;4889593;29;20021;-74
2022/11/30 10:55:41;;;;;;;21.27;12.30;;;8.90;99.90;;;;;;4872597;29;20033;-74
2022/11/30 10:58:25;;;;;;;22.40;11.95;;;8.80;99.90;;;;;;4889706;29;20033;-72
2022/11/30 11:01:29;;;;;;;21.92;12.88;;;8.80;99.90;;;;;;4895841;29;20032;-75
2022/11/30 11:04:21;;;;;;;23.60;13.15;;;8.80;99.90;;;;;;4871991;29;20330;-72
2022/11/30 11:07:05;;;;;;;21.75;12.43;;;8.80;99.90;;;;;;4854374;29;20045;-73
2022/11/30 11:09:45;;;;;;;20.95;12.43;;;8.70;99.90;;;;;;4870192;29;20127;-74
2022/11/30 11:12:29;;;;;;;22.38;13.73;;;8.70;99.90;;;;;;4870437;29;20037;-72
2022/11/30 11:15:21;;;;;;;22.75;14.20;;;8.80;99.90;;;;;;4870703;29;20037;-73
2022/11/30 11:17:48;;;;;;;21.42;12.35;;;8.80;99.90;;;;;;4870173;29;20396;-73
2022/11/30 11:20:35;;;;;;;26.95;16.02;;;8.90;99.90;;;;;;4870907;29;20036;-73
2022/11/30 11:23:02;;;;;;;29.20;16.50;;;8.90;99.90;;;;;;4870793;29;20036;-77
2022/11/30 11:25:36;;;;;;;23.30;13.45;;;9.00;99.90;;;;;;4869378;29;20037;-74
2022/11/30 11:28:13;;;;;;;19.15;11.13;;;9.00;99.90;;;;;;4870852;29;20042;-74
2022/11/30 11:30:39;;;;;;;21.50;11.20;;;9.10;99.90;;;;;;4887406;29;20299;-75
2022/11/30 11:33:10;;;;;;;20.65;11.73;;;9.20;99.90;;;;;;4872419;29;20260;-75
2022/11/30 11:35:45;;;;;;;21.98;11.88;;;9.20;99.90;;;;;;4888552;29;20037;-73
2022/11/30 11:38:43;;;;;;;30.23;18.42;;;9.20;99.90;;;;;;4888804;29;20045;-75
2022/11/30 11:41:24;;;;;;;27.10;15.80;;;9.20;99.90;;;;;;4870535;29;20281;-77
2022/11/30 11:44:05;;;;;;;20.50;11.73;;;9.20;99.90;;;;;;4888713;29;20237;-74
2022/11/30 11:46:55;;;;;;;18.42;10.93;;;9.20;99.90;;;;;;4883904;29;20029;-74
2022/11/30 11:49:37;;;;;;;18.88;10.75;;;9.20;99.90;;;;;;4888969;29;20100;-74
2022/11/30 11:52:04;;;;;;;19.58;10.85;;;9.10;99.90;;;;;;4888529;29;20064;-74
2022/11/30 11:54:34;;;;;;;18.27;11.02;;;9.10;99.90;;;;;;4887871;29;20150;-73
2022/11/30 11:57:00;;;;;;;17.60;9.68;;;9.20;99.90;;;;;;4888342;29;20309;-74
2022/11/30 11:59:50;;;;;;;15.50;10.00;;;9.20;99.90;;;;;;4888126;29;20283;-76
2022/11/30 12:02:41;;;;;;;21.25;11.43;;;9.10;99.90;;;;;;4894013;29;20056;-73
2022/11/30 12:05:09;;;;;;;17.65;10.10;;;9.10;99.90;;;;;;4906561;29;20068;-73
2022/11/30 12:07:48;;;;;;;;;;;9.10;99.90;;;;;;4890395;29;20040;-75
2022/11/30 12:10:28;;;;;;;19.08;11.02;;;9.10;99.90;;;;;;4906785;29;19907;-76
2022/11/30 12:12:55;;;;;;;27.70;16.02;;;9.10;99.90;;;;;;4906874;29;20088;-75
2022/11/30 12:16:03;;;;;;;27.40;16.52;;;9.10;99.90;;;;;;4906914;29;20041;-78
2022/11/30 12:18:48;;;;;;;19.50;11.88;;;9.10;99.90;;;;;;4893830;29;20047;-75
2022/11/30 12:21:22;;;;;;;19.63;11.93;;;9.00;99.90;;;;;;4906945;29;20048;-77
2022/11/30 12:24:06;;;;;;;19.70;11.32;;;8.90;99.90;;;;;;4904297;29;20032;-76
2022/11/30 12:26:50;;;;;;;19.15;12.00;;;8.90;99.90;;;;;;4887656;29;20109;-76
2022/11/30 12:29:43;;;;;;;19.85;12.10;;;8.90;99.90;;;;;;4894938;29;20314;-73
2022/11/30 12:32:12;;;;;;;18.42;10.77;;;9.00;99.90;;;;;;4906746;29;20426;-75
2022/11/30 12:34:52;;;;;;;18.10;11.20;;;9.10;99.90;;;;;;4906359;29;20032;-73
2022/11/30 12:37:26;;;;;;;19.90;10.93;;;9.10;99.90;;;;;;4904274;29;20037;-74
2022/11/30 12:40:07;;;;;;;18.13;10.38;;;9.30;99.90;;;;;;4906480;29;20028;-74
2022/11/30 12:42:36;;;;;;;17.30;10.02;;;9.20;99.90;;;;;;4902175;29;20318;-73
2022/11/30 12:45:07;;;;;;;;;;;9.10;99.90;;;;;;4888435;29;20041;-74
2022/11/30 12:48:10;;;;;;;19.13;10.10;;;9.10;99.90;;;;;;4906034;29;19966;-73
2022/11/30 12:50:43;;;;;;;19.00;10.10;;;9.20;99.90;;;;;;4905740;29;20055;-74
2022/11/30 12:53:27;;;;;;;18.25;10.43;;;9.10;99.90;;;;;;4905956;29;20044;-73
2022/11/30 12:56:17;;;;;;;18.20;10.13;;;9.10;99.90;;;;;;4906314;29;20179;-74
2022/11/30 12:58:59;;;;;;;19.55;10.48;;;9.00;99.90;;;;;;4899919;29;20024;-73
2022/11/30 13:01:47;;;;;;;19.70;10.25;;;9.00;99.90;;;;;;4897564;29;20103;-73
2022/11/30 13:04:24;;;;;;;17.70;9.57;;;8.90;99.90;;;;;;4905995;29;20345;-73
2022/11/30 13:07:03;;;;;;;18.17;10.13;;;8.80;99.90;;;;;;4906247;29;20318;-73
2022/11/30 13:09:53;;;;;;;20.98;10.77;;;8.60;99.90;;;;;;4905477;29;20049;-73
2022/11/30 13:12:35;;;;;;;21.50;10.63;;;8.50;99.90;;;;;;4906052;29;20029;-73
2022/11/30 13:15:34;;;;;;;21.42;11.57;;;8.40;99.90;;;;;;4906017;29;20100;-73
2022/11/30 13:18:02;;;;;;;17.90;11.13;;;8.30;99.90;;;;;;4891434;29;20044;-73
2022/11/30 13:20:41;;;;;;;21.45;11.70;;;8.30;99.90;;;;;;4900036;29;20381;-73
2022/11/30 13:23:13;;;;;;;19.25;11.00;;;8.20;99.90;;;;;;4906002;29;20040;-73
2022/11/30 13:25:46;;;;;;;21.38;12.57;;;8.20;99.90;;;;;;4905067;29;20311;-73
2022/11/30 13:28:40;;;;;;;18.70;11.15;;;8.30;99.90;;;;;;4905688;29;20040;-73
2022/11/30 13:31:32;;;;;;;16.80;10.15;;;8.30;99.90;;;;;;4895551;29;20021;-73
2022/11/30 13:33:59;;;;;;;18.10;10.48;;;8.40;99.90;;;;;;4903667;29;20037;-74
2022/11/30 13:36:40;;;;;;;17.80;10.07;;;8.40;99.90;;;;;;4900960;29;20081;-73
2022/11/30 13:39:21;;;;;;;18.73;9.73;;;8.30;99.90;;;;;;4896197;29;20052;-71
2022/11/30 13:42:05;;;;;;;16.67;9.23;;;8.30;99.90;;;;;;4887695;29;20333;-73
2022/11/30 13:44:33;;;;;;;16.65;10.13;;;8.30;99.90;;;;;;4905083;29;20040;-72
2022/11/30 13:47:00;;;;;;;;;;;8.30;99.90;;;;;;4900127;29;20028;-72
2022/11/30 13:49:36;;;;;;;16.70;9.63;;;8.30;99.90;;;;;;4889314;29;19956;-77
2022/11/30 13:52:03;;;;;;;16.95;9.95;;;8.30;99.90;;;;;;4874798;29;20025;-73
2022/11/30 13:54:38;;;;;;;15.80;9.13;;;8.30;99.90;;;;;;4890659;29;20041;-73
2022/11/30 13:57:27;;;;;;;16.98;10.32;;;8.30;99.90;;;;;;4890850;29;20029;-77
2022/11/30 14:00:00;;;;;;;16.55;10.00;;;8.30;99.90;;;;;;4890349;29;20044;-75
2022/11/30 14:02:32;;;;;;;16.48;9.93;;;8.30;99.90;;;;;;4908034;29;20036;-73
2022/11/30 14:05:22;;;;;;;18.95;10.20;;;8.30;99.90;;;;;;4906841;29;20044;-73
2022/11/30 14:08:00;;;;;;;17.73;9.60;;;8.30;99.90;;;;;;4908355;29;20073;-76
2022/11/30 14:10:43;;;;;;;15.43;9.23;;;8.30;99.90;;;;;;4908672;29;20024;-76
2022/11/30 14:13:09;;;;;;;16.67;10.00;;;8.30;99.90;;;;;;4908793;29;20029;-73
2022/11/30 14:15:37;;;;;;;17.10;10.27;;;8.20;99.90;;;;;;4908460;29;20048;-74
2022/11/30 14:18:13;;;;;;;;;;;8.20;99.90;;;;;;4909543;29;20286;-74
2022/11/30 14:20:52;;;;;;;24.00;14.85;;;8.20;99.90;;;;;;4908298;29;19907;-75
2022/11/30 14:23:39;;;;;;;30.30;18.85;;;8.20;99.90;;;;;;4908693;29;20028;-74
2022/11/30 14:26:12;;;;;;;20.83;13.00;;;8.10;99.90;;;;;;4908622;29;20295;-75
2022/11/30 14:29:10;;;;;;;17.95;10.40;;;8.10;99.90;;;;;;4908448;29;20052;-74
2022/11/30 14:31:45;;;;;;;17.33;9.60;;;8.10;99.90;;;;;;4908094;29;20225;-76
2022/11/30 14:34:31;;;;;;;16.40;10.30;;;8.10;99.90;;;;;;4908422;29;20473;-75
2022/11/30 14:37:19;;;;;;;16.35;9.88;;;8.10;99.90;;;;;;4907417;29;20028;-72
2022/11/30 14:39:46;;;;;;;;;;;8.10;99.90;;;;;;4892236;29;20096;-74
2022/11/30 14:42:26;;;;;;;17.58;9.70;;;8.00;99.90;;;;;;4908468;29;19915;-75
2022/11/30 14:44:53;;;;;;;17.80;9.93;;;8.00;99.90;;;;;;4891348;29;20282;-73
2022/11/30 14:47:24;;;;;;;15.45;9.63;;;8.00;99.90;;;;;;4908498;29;20049;-75
2022/11/30 14:49:53;;;;;;;17.67;9.63;;;7.90;99.90;;;;;;4908384;29;20033;-74
2022/11/30 14:52:40;;;;;;;37.95;23.95;;;7.90;99.90;;;;;;4908055;29;20071;-74
2022/11/30 14:55:18;;;;;;;24.23;12.32;;;8.00;99.90;;;;;;4908345;29;20041;-74
2022/11/30 14:58:22;;;;;;;18.17;10.20;;;7.90;99.90;;;;;;4890933;29;20207;-74
2022/11/30 15:00:48;;;;;;;20.17;11.05;;;7.90;99.90;;;;;;4906318;29;20024;-74
2022/11/30 15:03:30;;;;;;;25.38;16.40;;;7.90;99.90;;;;;;4908244;29;20056;-74
2022/11/30 15:05:58;;;;;;;27.05;17.02;;;7.90;99.90;;;;;;4908011;29;20107;-74
2022/11/30 15:08:32;;;;;;;22.27;12.15;;;7.90;99.90;;;;;;4907868;29;20084;-74
2022/11/30 15:11:06;;;;;;;20.10;11.85;;;7.90;99.90;;;;;;4907574;29;20028;-74
2022/11/30 15:13:36;;;;;;;22.38;12.45;;;8.00;99.90;;;;;;4906745;29;20115;-74
2022/11/30 15:16:13;;;;;;;22.33;11.75;;;8.00;99.90;;;;;;4906130;29;20064;-74
2022/11/30 15:18:39;;;;;;;24.15;13.80;;;7.90;99.90;;;;;;4887664;29;20023;-75
2022/11/30 15:21:16;;;;;;;21.88;12.23;;;7.90;99.90;;;;;;4903896;29;20033;-74
2022/11/30 15:23:44;;;;;;;26.00;14.05;;;7.80;99.90;;;;;;4894870;29;20047;-74
2022/11/30 15:26:49;;;;;;;23.67;12.30;;;7.90;99.90;;;;;;4857009;29;20037;-74
2022/11/30 15:29:30;;;;;;;23.45;11.77;;;7.80;99.90;;;;;;4876396;29;20099;-74
2022/11/30 15:31:57;;;;;;;20.75;11.75;;;7.80;99.90;;;;;;4907295;29;20219;-74
2022/11/30 15:34:23;;;;;;;23.63;12.77;;;7.70;99.90;;;;;;4907809;29;20044;-73
2022/11/30 15:36:53;;;;;;;25.30;13.05;;;7.70;99.90;;;;;;4907512;29;20044;-78
2022/11/30 15:39:21;;;;;;;23.05;12.77;;;7.70;99.90;;;;;;4906936;29;20036;-75
2022/11/30 15:41:53;;;;;;;25.20;12.68;;;7.70;99.90;;;;;;4906558;29;20054;-74
2022/11/30 15:44:38;;;;;;;24.58;13.23;;;7.60;99.90;;;;;;4907272;29;20044;-73
2022/11/30 15:47:06;;;;;;;28.60;14.18;;;7.60;99.90;;;;;;4898958;29;20088;-73
2022/11/30 15:49:35;;;;;;;22.90;12.67;;;7.60;99.90;;;;;;4906312;29;20349;-73
2022/11/30 15:52:11;;;;;;;23.08;12.50;;;7.60;99.90;;;;;;4907253;29;20036;-73
2022/11/30 15:54:51;;;;;;;25.73;13.05;;;7.60;99.90;;;;;;4906423;29;20036;-74
2022/11/30 15:57:18;;;;;;;24.30;12.80;;;7.60;99.90;;;;;;4906842;29;20196;-73
2022/11/30 16:00:21;;;;;;;24.48;13.15;;;7.50;99.90;;;;;;4906456;29;20196;-73
2022/11/30 16:02:47;;;;;;;26.77;12.80;;;7.50;99.90;;;;;;4906483;29;20048;-73
2022/11/30 16:05:14;;;;;;;26.23;13.82;;;7.40;99.90;;;;;;4907716;29;20096;-73
2022/11/30 16:07:55;;;;;;;24.95;13.07;;;7.50;99.90;;;;;;4907498;29;20033;-73
2022/11/30 16:10:43;;;;;;;23.63;13.15;;;7.40;99.90;;;;;;4908235;29;20036;-74
2022/11/30 16:13:19;;;;;;;28.20;14.40;;;7.40;99.90;;;;;;4891088;29;20063;-73
2022/11/30 16:15:49;;;;;;;28.48;14.20;;;7.40;99.90;;;;;;4907239;29;20033;-74
2022/11/30 16:18:21;;;;;;;26.15;13.70;;;7.50;99.90;;;;;;4907677;29;20260;-73
2022/11/30 16:20:53;;;;;;;25.70;14.23;;;7.40;99.90;;;;;;4909261;29;20091;-74
2022/11/30 16:23:21;;;;;;;26.05;13.88;;;7.40;99.90;;;;;;4907201;29;20318;-72
2022/11/30 16:25:48;;;;;;;28.27;14.77;;;7.40;99.90;;;;;;4894976;29;20045;-71
2022/11/30 16:28:16;;;;;;;27.88;14.90;;;7.50;99.90;;;;;;4896674;29;20025;-74
2022/11/30 16:30:43;;;;;;;28.67;13.68;;;7.40;99.90;;;;;;4902503;29;20036;-73
2022/11/30 16:33:15;;;;;;;29.90;15.50;;;7.50;99.90;;;;;;4906687;29;20032;-73
2022/11/30 16:36:06;;;;;;;25.42;14.38;;;7.40;99.90;;;;;;4906352;29;20032;-74
2022/11/30 16:38:32;;;;;;;26.15;13.95;;;7.50;99.90;;;;;;4906247;29;20041;-75
2022/11/30 16:41:10;;;;;;;29.30;14.15;;;7.40;99.90;;;;;;4906199;29;20021;-74
2022/11/30 16:43:38;;;;;;;28.92;15.02;;;7.40;99.90;;;;;;4889152;29;20032;-75
2022/11/30 16:46:04;;;;;;;28.38;14.20;;;7.50;99.90;;;;;;4889377;29;20040;-76
2022/11/30 16:48:32;;;;;;;28.02;15.05;;;7.40;99.90;;;;;;4887350;29;20351;-73
2022/11/30 16:50:58;;;;;;;27.20;13.77;;;7.50;99.90;;;;;;4871614;29;20211;-75
2022/11/30 16:53:24;;;;;;;25.35;13.55;;;7.40;99.90;;;;;;4887339;29;20104;-74
2022/11/30 16:55:49;;;;;;;29.30;17.33;;;7.40;99.90;;;;;;4903356;29;20032;-75
2022/11/30 16:58:15;;;;;;;29.67;17.00;;;7.40;99.90;;;;;;4906012;29;20029;-74
2022/11/30 17:00:41;;;;;;;31.13;16.98;;;7.40;99.90;;;;;;4899250;29;20196;-74
2022/11/30 17:03:13;;;;;;;40.60;22.55;;;7.40;99.90;;;;;;4854907;29;20053;-74
2022/11/30 17:05:38;;;;;;;39.38;21.90;;;7.40;99.90;;;;;;4863148;29;20087;-74
2022/11/30 17:08:04;;;;;;;33.75;19.38;;;7.40;99.90;;;;;;4905823;29;20029;-75
2022/11/30 17:10:30;;;;;;;28.30;14.70;;;7.40;99.90;;;;;;4888598;29;20060;-74
2022/11/30 17:12:56;;;;;;;24.85;13.65;;;7.40;99.90;;;;;;4890010;29;20025;-74
2022/11/30 17:15:23;;;;;;;27.20;14.50;;;7.40;99.90;;;;;;4887166;29;20025;-74
2022/11/30 17:17:48;;;;;;;29.58;14.35;;;7.40;99.90;;;;;;4886628;29;20227;-75
2022/11/30 17:20:16;;;;;;;35.90;18.55;;;7.50;99.90;;;;;;4887077;29;20040;-76
2022/11/30 17:22:42;;;;;;;33.78;18.70;;;7.50;99.90;;;;;;4887146;29;20033;-76
2022/11/30 17:25:15;;;;;;;26.48;15.07;;;7.50;99.90;;;;;;4886407;29;20049;-73
2022/11/30 17:27:41;;;;;;;22.75;13.48;;;7.50;99.90;;;;;;4886936;29;20040;-74
2022/11/30 17:30:07;;;;;;;24.98;13.15;;;7.40;99.90;;;;;;4903407;29;20516;-75
2022/11/30 17:32:33;;;;;;;25.13;13.55;;;7.30;99.90;;;;;;4905728;29;20029;-74
2022/11/30 17:34:58;;;;;;;24.13;12.55;;;7.30;99.90;;;;;;4902387;29;20043;-72
2022/11/30 17:37:25;;;;;;;19.90;10.90;;;7.40;99.90;;;;;;4906249;29;20085;-76
2022/11/30 17:39:51;;;;;;;20.13;11.15;;;7.40;99.90;;;;;;4904064;29;20318;-75
2022/11/30 17:42:16;;;;;;;19.55;11.15;;;7.40;99.90;;;;;;4905716;29;20047;-77
2022/11/30 17:44:42;;;;;;;19.88;10.90;;;7.40;99.90;;;;;;4904800;29;20223;-72
2022/11/30 17:47:08;;;;;;;17.63;10.68;;;7.30;99.90;;;;;;4905273;29;20032;-72
2022/11/30 17:49:34;;;;;;;17.98;10.55;;;7.30;99.90;;;;;;4904769;29;20040;-73
2022/11/30 17:51:59;;;;;;;19.80;11.20;;;7.30;99.90;;;;;;4905473;29;20033;-73
2022/11/30 17:54:25;;;;;;;17.98;11.18;;;7.20;99.90;;;;;;4905233;29;20325;-72
2022/11/30 17:56:51;;;;;;;16.95;10.48;;;7.30;99.90;;;;;;4905069;29;20036;-72
2022/11/30 17:59:17;;;;;;;17.35;10.68;;;7.20;99.90;;;;;;4905426;29;20331;-72
2022/11/30 18:01:43;;;;;;;18.73;11.38;;;7.20;99.90;;;;;;4904809;29;20032;-72
2022/11/30 18:04:09;;;;;;;17.27;10.80;;;7.20;99.90;;;;;;4905586;29;20060;-72
2022/11/30 18:06:35;;;;;;;19.08;11.20;;;7.20;99.90;;;;;;4904703;29;20037;-73
2022/11/30 18:09:00;;;;;;;29.92;18.38;;;7.10;99.90;;;;;;4905316;29;20315;-72
2022/11/30 18:11:26;;;;;;;17.27;10.55;;;7.20;99.90;;;;;;4905121;29;20035;-72
2022/11/30 18:13:54;;;;;;;16.88;9.80;;;7.20;99.90;;;;;;4904884;29;20032;-71
2022/11/30 18:16:25;;;;;;;16.83;9.80;;;7.20;99.90;;;;;;4905203;29;20040;-71
2022/11/30 18:18:52;;;;;;;16.27;9.60;;;7.20;99.90;;;;;;4904782;29;20029;-70
2022/11/30 18:21:20;;;;;;;15.35;9.52;;;7.20;99.90;;;;;;4905597;29;20215;-70
2022/11/30 18:23:46;;;;;;;16.63;10.15;;;7.20;99.90;;;;;;4904832;29;20318;-70
2022/11/30 18:26:15;;;;;;;17.83;9.82;;;7.20;99.90;;;;;;4904869;29;20084;-71
2022/11/30 18:28:41;;;;;;;16.77;10.05;;;7.10;99.90;;;;;;4904406;29;20032;-71
2022/11/30 18:31:07;;;;;;;17.00;9.73;;;7.10;99.90;;;;;;4905540;29;20387;-71
2022/11/30 18:33:34;;;;;;;15.95;10.00;;;7.10;99.90;;;;;;4904562;29;20116;-71
2022/11/30 18:36:01;;;;;;;17.55;9.77;;;7.10;99.90;;;;;;4907450;29;20043;-70
2022/11/30 18:38:28;;;;;;;18.65;10.35;;;7.10;99.90;;;;;;4888489;29;20093;-70
2022/11/30 18:40:54;;;;;;;20.10;10.88;;;7.10;99.90;;;;;;4901046;29;20357;-70
2022/11/30 18:43:20;;;;;;;18.98;11.27;;;7.00;99.90;;;;;;4899827;29;20045;-71
2022/11/30 18:45:46;;;;;;;19.65;10.43;;;7.00;99.90;;;;;;4888857;29;20099;-70
2022/11/30 18:48:12;;;;;;;23.20;11.90;;;7.00;99.90;;;;;;4892757;29;20037;-71
2022/11/30 18:50:37;;;;;;;19.63;11.48;;;7.00;99.90;;;;;;4889027;29;20024;-71
2022/11/30 18:53:03;;;;;;;20.52;10.98;;;7.00;99.90;;;;;;4872841;29;20033;-70
2022/11/30 18:55:30;;;;;;;20.67;11.55;;;7.00;99.90;;;;;;4872881;29;20032;-70
2022/11/30 18:57:56;;;;;;;23.25;12.13;;;7.00;99.90;;;;;;4889253;29;20029;-70
2022/11/30 19:00:22;;;;;;;21.25;12.07;;;6.90;99.90;;;;;;4891983;29;20032;-70
2022/11/30 19:02:49;;;;;;;22.02;11.80;;;6.90;99.90;;;;;;4907459;29;20056;-71
2022/11/30 19:05:30;;;;;;;28.25;16.80;;;6.80;99.90;;;;;;4908058;29;20046;-72
2022/11/30 19:08:05;;;;;;;23.67;11.75;;;6.80;99.90;;;;;;4890955;29;20051;-70
2022/11/30 19:10:35;;;;;;;21.70;11.63;;;6.80;99.90;;;;;;4907849;29;20042;-70
2022/11/30 19:13:02;;;;;;;23.00;11.40;;;6.70;99.90;;;;;;4907928;29;20089;-70